Time;durP1;ratioP1;P1;durP2;ratioP2;P2;SDS_P1;SDS_P2;PMS_P1;PMS_P2;Temp;Humidity;BMP_temperature;BMP_pressure;BME280_temperature;BME280_humidity;BME280_pressure;Samples;Min_cycle;Max_cycle;Signal;HPM_P1;HPM_P2
2023/03/12 00:03:20;;;;;;;27.30;15.70;;;;;;;-0.83;80.33;98182.01;218202;1297;22585;-77
2023/03/12 00:08:24;;;;;;;29.10;16.90;;;;;;;-0.88;80.49;98181.21;218263;1292;22550;-77
2023/03/12 00:13:33;;;;;;;38.90;18.90;;;;;;;-0.96;80.31;98187.11;218417;1297;22644;-76
2023/03/12 00:18:36;;;;;;;36.60;19.80;;;;;;;-1.03;80.40;98195.16;218494;1297;22543;-76
2023/03/12 00:23:39;;;;;;;29.70;17.40;;;;;;;-1.12;79.99;98198.14;218504;1295;24240;-76
2023/03/12 00:28:42;;;;;;;25.60;14.60;;;;;;;-1.20;80.27;98203.70;218603;1295;22988;-76
2023/03/12 00:33:45;;;;;;;23.30;13.30;;;;;;;-1.28;80.10;98207.98;218549;1297;22548;-77
2023/03/12 00:38:48;;;;;;;26.90;16.30;;;;;;;-1.35;80.38;98205.27;218423;1296;24297;-75
2023/03/12 00:44:10;;;;;;;22.10;13.90;;;;;;;-1.41;80.21;98209.61;218406;1297;22704;-78
2023/03/12 00:49:15;;;;;;;24.10;15.60;;;;;;;-1.48;79.86;98211.58;218486;1296;22553;-76
2023/03/12 00:54:37;;;;;;;26.00;17.40;;;;;;;-1.59;80.05;98212.62;218481;1297;22633;-76
2023/03/12 00:59:41;;;;;;;32.00;18.20;;;;;;;-1.70;80.08;98214.05;218321;1296;23789;-77
2023/03/12 01:04:44;;;;;;;23.10;15.00;;;;;;;-1.89;80.45;98218.70;218261;1292;22677;-76
2023/03/12 01:09:49;;;;;;;23.90;15.30;;;;;;;-2.13;80.98;98216.66;218275;1292;22559;-76
2023/03/12 01:14:52;;;;;;;21.50;14.20;;;;;;;-2.37;81.62;98209.16;218432;1293;25513;-77
2023/03/12 01:19:55;;;;;;;21.20;13.20;;;;;;;-2.56;82.07;98201.52;218604;1295;22600;-76
2023/03/12 01:24:57;;;;;;;19.70;11.80;;;;;;;-2.68;82.37;98201.27;218668;1292;23527;-76
2023/03/12 01:30:01;;;;;;;23.10;12.80;;;;;;;-2.76;82.27;98202.36;218518;1297;22602;-75
2023/03/12 01:35:05;;;;;;;23.40;15.70;;;;;;;-2.81;82.97;98202.29;218294;1297;22580;-76
2023/03/12 01:40:13;;;;;;;23.80;14.10;;;;;;;-2.86;83.15;98205.23;218679;1294;22602;-76
2023/03/12 01:46:09;;;;;;;27.20;15.60;;;;;;;-2.92;83.14;98205.66;218733;1295;22652;-76
2023/03/12 01:51:14;;;;;;;26.80;15.20;;;;;;;-2.98;83.24;98209.63;217595;1297;25478;-76
2023/03/12 01:56:19;;;;;;;30.90;17.30;;;;;;;-3.03;83.12;98213.45;218380;1293;24179;-75
2023/03/12 02:01:24;;;;;;;23.70;14.30;;;;;;;-3.09;83.64;98216.98;218045;1296;26984;-76
2023/03/12 02:06:36;;;;;;;32.20;17.90;;;;;;;-3.13;83.69;98222.98;218541;1297;22674;-76
2023/03/12 02:11:39;;;;;;;36.10;18.80;;;;;;;-3.17;83.72;98227.28;218391;1297;22907;-77
2023/03/12 02:16:43;;;;;;;28.00;15.50;;;;;;;-3.21;83.70;98234.77;218293;1297;22704;-76
2023/03/12 02:21:45;;;;;;;32.30;16.80;;;;;;;-3.26;83.65;98234.11;218547;1295;24315;-76
2023/03/12 02:26:48;;;;;;;30.70;16.40;;;;;;;-3.27;83.97;98241.96;218443;1293;25686;-75
2023/03/12 02:31:55;;;;;;;28.30;15.80;;;;;;;-3.29;83.97;98250.91;218063;1295;24283;-76
2023/03/12 02:36:58;;;;;;;36.10;17.80;;;;;;;-3.31;83.89;98259.45;218316;1295;22696;-75
2023/03/12 02:42:01;;;;;;;31.50;16.50;;;;;;;-3.32;83.99;98265.41;218563;1293;22678;-76
2023/03/12 02:47:04;;;;;;;32.20;18.40;;;;;;;-3.33;84.14;98270.45;218683;1295;22565;-76
2023/03/12 02:52:07;;;;;;;28.80;16.20;;;;;;;-3.34;84.07;98276.42;218373;1296;25505;-76
2023/03/12 02:57:09;;;;;;;23.80;13.50;;;;;;;-3.36;84.29;98281.54;218351;1296;25472;-76
2023/03/12 03:02:11;;;;;;;19.90;13.10;;;;;;;-3.38;84.10;98285.27;218242;1296;25059;-76
2023/03/12 03:07:15;;;;;;;22.50;12.70;;;;;;;-3.39;84.29;98290.53;218637;1292;22610;-76
2023/03/12 03:12:18;;;;;;;23.70;13.40;;;;;;;-3.39;83.96;98299.86;218820;1296;22633;-77
2023/03/12 03:17:23;;;;;;;24.40;12.90;;;;;;;-3.40;84.26;98305.58;218660;1292;22578;-75
2023/03/12 03:22:25;;;;;;;15.60;9.30;;;;;;;-3.41;84.18;98310.30;218822;1293;22593;-76
2023/03/12 03:27:28;;;;;;;15.90;9.80;;;;;;;-3.39;84.12;98311.69;218400;1293;26890;-75
2023/03/12 03:32:31;;;;;;;17.70;11.30;;;;;;;-3.36;84.05;98316.49;218513;1296;25664;-76
2023/03/12 03:37:33;;;;;;;17.00;9.10;;;;;;;-3.35;83.83;98319.67;218487;1274;24428;-76
2023/03/12 03:42:36;;;;;;;17.00;10.10;;;;;;;-3.34;83.95;98327.18;218653;1274;22739;-75
2023/03/12 03:47:38;;;;;;;14.00;8.40;;;;;;;-3.33;83.28;98332.80;218442;1296;22570;-76
2023/03/12 03:52:40;;;;;;;14.40;9.80;;;;;;;-3.33;83.45;98329.48;218491;1296;22714;-74
2023/03/12 03:57:43;;;;;;;15.20;10.30;;;;;;;-3.32;83.50;98330.98;218583;1295;22612;-75
2023/03/12 04:02:46;;;;;;;19.70;12.90;;;;;;;-3.33;83.26;98327.42;218611;1296;25639;-75
2023/03/12 04:07:52;;;;;;;18.30;11.20;;;;;;;-3.35;83.38;98336.36;218532;1296;22698;-75
2023/03/12 04:12:55;;;;;;;23.10;14.10;;;;;;;-3.36;83.15;98332.83;218465;1295;22599;-75
2023/03/12 04:17:57;;;;;;;24.00;13.60;;;;;;;-3.36;83.17;98340.09;218637;1296;24295;-75
2023/03/12 04:23:00;;;;;;;21.10;12.10;;;;;;;-3.38;83.07;98338.01;218630;1274;24272;-76
2023/03/12 04:28:03;;;;;;;16.10;10.70;;;;;;;-3.42;83.07;98344.52;218328;1296;22660;-75
2023/03/12 04:33:06;;;;;;;19.80;11.90;;;;;;;-3.44;83.26;98348.90;218599;1295;24405;-75
2023/03/12 04:38:09;;;;;;;17.80;10.40;;;;;;;-3.42;83.27;98352.25;218812;1296;24237;-75
2023/03/12 04:43:12;;;;;;;14.50;9.20;;;;;;;-3.42;83.33;98357.24;218564;1296;22583;-75
2023/03/12 04:48:14;;;;;;;13.80;9.90;;;;;;;-3.44;83.10;98359.25;218152;1296;22611;-73
2023/03/12 04:53:19;;;;;;;17.70;10.80;;;;;;;-3.44;83.01;98361.70;218314;1295;22671;-75
2023/03/12 04:58:22;;;;;;;16.70;10.90;;;;;;;-3.45;82.98;98363.14;218430;1297;22694;-76
2023/03/12 05:03:25;;;;;;;17.20;10.20;;;;;;;-3.46;83.23;98363.52;218431;1295;24253;-75
2023/03/12 05:08:28;;;;;;;16.90;10.30;;;;;;;-3.46;83.01;98371.94;218637;1297;22646;-75
2023/03/12 05:13:30;;;;;;;15.80;8.50;;;;;;;-3.44;83.14;98376.94;218375;1295;22716;-74
2023/03/12 05:18:33;;;;;;;18.70;10.40;;;;;;;-3.41;82.84;98381.55;218647;1296;22572;-75
2023/03/12 05:23:38;;;;;;;17.00;10.70;;;;;;;-3.36;82.80;98387.95;218546;1296;23506;-75
2023/03/12 05:28:40;;;;;;;11.60;7.00;;;;;;;-3.29;82.77;98388.48;218513;1296;23462;-76
2023/03/12 05:33:45;;;;;;;12.50;7.70;;;;;;;-3.18;82.53;98388.53;218291;1293;22679;-76
2023/03/12 05:38:47;;;;;;;11.50;7.20;;;;;;;-3.08;82.56;98396.20;218550;1296;22822;-76
2023/03/12 05:43:55;;;;;;;9.20;5.80;;;;;;;-2.95;82.56;98403.35;218595;1279;25688;-75
2023/03/12 05:48:58;;;;;;;10.40;5.80;;;;;;;-2.81;82.67;98404.36;218311;1279;24307;-76
2023/03/12 05:54:01;;;;;;;10.60;7.80;;;;;;;-2.71;82.19;98405.70;218789;1296;22609;-76
2023/03/12 05:59:03;;;;;;;14.00;8.30;;;;;;;-2.66;81.79;98407.90;218824;1296;24506;-75
2023/03/12 06:04:07;;;;;;;14.90;8.10;;;;;;;-2.62;81.61;98411.52;218839;1292;22621;-75
2023/03/12 06:09:09;;;;;;;13.60;7.80;;;;;;;-2.54;81.65;98424.05;218773;1296;22823;-75
2023/03/12 06:14:11;;;;;;;14.20;7.90;;;;;;;-2.43;81.55;98431.33;218422;1295;23977;-75
2023/03/12 06:19:14;;;;;;;13.30;7.70;;;;;;;-2.33;81.32;98435.43;218687;1296;22580;-75
2023/03/12 06:24:18;;;;;;;14.90;8.40;;;;;;;-2.26;80.95;98446.45;218665;1291;22570;-75
2023/03/12 06:29:31;;;;;;;12.10;7.70;;;;;;;-2.14;80.83;98457.77;218720;1296;22703;-75
2023/03/12 06:34:34;;;;;;;15.60;8.90;;;;;;;-1.97;80.69;98456.82;218649;1296;22575;-76
2023/03/12 06:39:37;;;;;;;14.20;8.90;;;;;;;-1.77;80.36;98458.89;218830;1292;22674;-76
2023/03/12 06:44:39;;;;;;;14.60;9.10;;;;;;;-1.57;79.98;98466.98;218695;1296;25526;-75
2023/03/12 06:49:41;;;;;;;15.00;10.30;;;;;;;-1.40;79.91;98470.48;218411;1289;22596;-77
2023/03/12 06:54:44;;;;;;;15.50;10.10;;;;;;;-1.26;79.63;98472.15;218475;1293;25262;-76
2023/03/12 06:59:47;;;;;;;17.90;10.10;;;;;;;-1.16;79.62;98472.72;218618;1297;25511;-75
2023/03/12 07:04:51;;;;;;;16.20;9.50;;;;;;;-1.15;79.11;98476.38;218291;1297;22540;-75
2023/03/12 07:09:53;;;;;;;15.60;9.80;;;;;;;-1.16;78.62;98470.92;218309;1297;24259;-76
2023/03/12 07:14:56;;;;;;;14.90;9.80;;;;;;;-1.10;78.81;98480.33;218408;1297;22552;-74
2023/03/12 07:19:58;;;;;;;12.20;8.60;;;;;;;-0.98;78.62;98483.73;218139;1297;22547;-75
2023/03/12 07:25:01;;;;;;;12.60;8.00;;;;;;;-0.84;78.68;98482.59;218365;1295;22590;-77
2023/03/12 07:30:03;;;;;;;11.70;8.40;;;;;;;-0.69;78.77;98480.14;218412;1297;22793;-76
2023/03/12 07:35:07;;;;;;;12.90;8.70;;;;;;;-0.55;78.47;98479.64;218400;1295;25424;-80
2023/03/12 07:40:19;;;;;;;15.30;9.10;;;;;;;-0.41;78.40;98481.61;218593;1295;24244;-75
2023/03/12 07:45:24;;;;;;;13.40;8.30;;;;;;;-0.28;78.06;98481.10;218718;1297;22711;-79
2023/03/12 07:50:29;;;;;;;11.40;7.40;;;;;;;-0.16;78.12;98478.98;218481;1297;25354;-76
2023/03/12 07:55:33;;;;;;;11.10;7.50;;;;;;;-0.04;78.00;98476.46;218205;1297;23846;-76
2023/03/12 08:00:36;;;;;;;8.70;5.40;;;;;;;0.07;77.54;98479.02;218585;1297;25552;-75
2023/03/12 08:05:54;;;;;;;9.50;5.50;;;;;;;0.16;76.90;98479.95;218179;1297;22550;-75
2023/03/12 08:11:03;;;;;;;8.80;5.30;;;;;;;0.27;76.62;98482.45;218511;1297;22605;-76
2023/03/12 08:16:07;;;;;;;8.40;4.70;;;;;;;0.42;76.82;98482.10;218456;1296;23805;-75
2023/03/12 08:21:13;;;;;;;6.90;4.80;;;;;;;0.55;76.28;98482.31;218477;1297;22774;-76
2023/03/12 08:26:18;;;;;;;8.20;4.80;;;;;;;0.69;76.66;98479.02;218319;1297;25288;-75
2023/03/12 08:31:23;;;;;;;6.00;3.60;;;;;;;0.83;76.13;98487.33;218394;1296;25439;-76
2023/03/12 08:36:26;;;;;;;6.60;3.40;;;;;;;0.99;76.14;98487.61;218176;1296;24409;-76
2023/03/12 08:41:29;;;;;;;5.60;3.40;;;;;;;1.15;75.74;98490.39;218068;1297;24434;-77
2023/03/12 08:46:32;;;;;;;4.10;3.50;;;;;;;1.31;75.63;98501.44;218723;1297;22619;-75
2023/03/12 08:51:34;;;;;;;5.80;3.00;;;;;;;1.49;74.95;98501.93;218486;1295;22594;-76
2023/03/12 08:56:40;;;;;;;5.60;3.30;;;;;;;1.80;74.31;98495.95;218582;1297;24401;-78
2023/03/12 09:01:42;;;;;;;6.80;4.00;;;;;;;2.11;73.23;98501.20;218463;1295;22576;-75
2023/03/12 09:06:46;;;;;;;4.90;3.40;;;;;;;2.39;73.01;98497.08;218494;1295;23991;-76
2023/03/12 09:11:50;;;;;;;5.10;3.60;;;;;;;2.66;72.83;98499.53;218881;1297;22560;-75
2023/03/12 09:16:59;;;;;;;5.20;3.40;;;;;;;2.85;71.81;98496.39;218669;1276;22550;-76
2023/03/12 09:22:02;;;;;;;6.40;3.80;;;;;;;2.99;71.52;98493.98;218862;1297;24312;-76
2023/03/12 09:27:08;;;;;;;4.80;3.50;;;;;;;3.13;70.82;98494.27;218230;1297;22662;-76
2023/03/12 09:32:14;;;;;;;5.90;3.30;;;;;;;3.28;70.53;98496.54;218610;1297;24431;-76
2023/03/12 09:37:19;;;;;;;3.50;2.20;;;;;;;3.39;70.43;98496.65;218635;1296;24164;-76
2023/03/12 09:42:48;;;;;;;4.90;2.10;;;;;;;3.49;69.53;98498.95;218650;1296;22678;-76
2023/03/12 09:48:02;;;;;;;6.90;3.00;;;;;;;3.60;69.72;98502.91;218567;1296;24283;-77
2023/03/12 09:53:32;;;;;;;6.50;2.00;;;;;;;3.91;69.97;98496.17;218257;1297;22683;-75
2023/03/12 09:58:38;;;;;;;4.30;2.10;;;;;;;4.21;69.46;98497.21;218414;1284;24310;-75
2023/03/12 10:04:04;;;;;;;4.60;2.40;;;;;;;4.43;68.81;98498.09;218620;1297;24285;-75
2023/03/12 10:09:44;;;;;;;4.30;2.30;;;;;;;4.58;68.42;98497.17;218671;1292;25365;-75
2023/03/12 10:15:01;;;;;;;4.40;2.20;;;;;;;4.60;67.01;98496.80;218247;1296;22547;-76
2023/03/12 10:21:10;;;;;;;;;;;;;;;;;;;;;
2023/03/12 10:27:13;;;;;;;5.10;2.70;;;;;;;4.39;67.43;98486.24;218350;1297;22549;-76
2023/03/12 10:32:30;;;;;;;3.90;2.90;;;;;;;4.36;67.84;98487.59;218558;1297;24583;-80
2023/03/12 10:37:49;;;;;;;2.60;2.00;;;;;;;4.42;67.55;98484.81;218440;1293;22643;-76
2023/03/12 10:42:55;;;;;;;3.70;2.30;;;;;;;4.57;67.91;98488.22;218625;1295;22549;-76
2023/03/12 10:48:08;;;;;;;4.30;2.90;;;;;;;4.79;67.32;98490.92;218620;1295;22664;-76
2023/03/12 10:53:34;;;;;;;5.20;2.90;;;;;;;4.95;66.60;98497.23;218351;1297;22565;-76
2023/03/12 10:58:43;;;;;;;;;;;;;;;5.08;66.31;98489.95;218313;1297;22527;-76
2023/03/12 11:03:45;;;;;;;4.20;2.20;;;;;;;5.18;65.73;98487.85;218438;1293;22671;-76
2023/03/12 11:09:24;;;;;;;4.10;2.30;;;;;;;5.11;64.83;98489.83;218452;1296;22620;-76
2023/03/12 11:14:32;;;;;;;4.60;2.50;;;;;;;5.01;65.02;98490.13;217787;1297;159889;-76
2023/03/12 11:19:39;;;;;;;4.90;2.90;;;;;;;5.19;64.85;98492.95;218747;1293;22563;-76
2023/03/12 11:24:59;;;;;;;4.60;2.10;;;;;;;5.32;64.37;98495.93;218247;1292;22560;-77
2023/03/12 11:30:09;;;;;;;3.90;2.70;;;;;;;5.47;64.56;98484.41;218413;1295;25264;-78
2023/03/12 11:35:16;;;;;;;3.70;2.20;;;;;;;5.64;64.56;98489.72;218533;1292;22675;-76
2023/03/12 11:40:51;;;;;;;6.00;3.00;;;;;;;5.70;63.99;98490.48;218399;1292;22558;-77
2023/03/12 11:46:31;;;;;;;3.60;3.10;;;;;;;5.78;64.05;98503.05;218375;1287;24328;-76
2023/03/12 11:52:08;;;;;;;6.30;2.90;;;;;;;5.97;63.56;98495.58;218473;1297;24868;-76
2023/03/12 11:57:38;;;;;;;4.90;2.60;;;;;;;6.04;63.05;98492.30;218614;1297;22637;-77
2023/03/12 12:03:23;;;;;;;4.10;2.60;;;;;;;6.04;62.74;98496.81;218747;1297;24429;-77
2023/03/12 12:08:45;;;;;;;4.00;2.90;;;;;;;6.10;62.81;98498.41;218584;1295;22545;-79
2023/03/12 12:14:26;;;;;;;4.70;2.70;;;;;;;6.09;62.09;98501.20;218824;1289;22570;-76
2023/03/12 12:20:06;;;;;;;3.60;2.30;;;;;;;6.16;61.48;98498.30;218618;1297;25432;-75
2023/03/12 12:25:22;;;;;;;4.60;2.50;;;;;;;6.17;60.84;98495.58;218731;1289;22560;-75
2023/03/12 12:31:08;;;;;;;4.90;2.70;;;;;;;6.27;61.90;98488.44;218602;1289;25430;-77
2023/03/12 12:36:13;;;;;;;5.40;3.00;;;;;;;6.24;61.09;98479.00;218146;1297;22556;-76
2023/03/12 12:41:30;;;;;;;3.50;2.30;;;;;;;6.23;60.21;98475.95;218454;1297;22745;-76
2023/03/12 12:46:44;;;;;;;4.00;2.20;;;;;;;6.27;60.02;98467.55;218355;1297;25536;-76
2023/03/12 12:51:53;;;;;;;2.90;1.80;;;;;;;6.27;59.57;98468.33;218489;1295;22659;-77
2023/03/12 12:57:20;;;;;;;4.00;2.20;;;;;;;6.16;59.42;98463.29;218207;1292;25397;-79
2023/03/12 13:02:30;;;;;;;4.10;2.00;;;;;;;6.09;59.96;98463.52;218629;1293;22527;-76
2023/03/12 13:07:43;;;;;;;2.90;1.70;;;;;;;6.15;60.38;98460.08;218624;1297;22586;-77
2023/03/12 13:12:57;;;;;;;3.60;1.90;;;;;;;6.23;59.53;98456.38;218592;1297;25368;-76
2023/03/12 13:18:06;;;;;;;3.40;1.80;;;;;;;6.30;59.13;98455.98;219017;1292;22653;-77
2023/03/12 13:23:29;;;;;;;5.00;2.00;;;;;;;6.49;59.47;98461.54;218653;1289;25315;-77
2023/03/12 13:28:55;;;;;;;2.70;1.80;;;;;;;6.70;59.09;98462.34;219013;1289;23329;-76
2023/03/12 13:34:47;;;;;;;1.70;1.60;;;;;;;6.84;58.18;98452.88;218460;1289;24325;-77
2023/03/12 13:40:00;;;;;;;2.70;2.10;;;;;;;6.97;58.17;98457.09;219093;1289;25318;-75
2023/03/12 13:46:09;;;;;;;4.50;3.10;;;;;;;7.10;57.95;98460.83;218546;1295;24262;-76
2023/03/12 13:51:27;;;;;;;4.90;3.70;;;;;;;7.14;58.15;98458.61;218446;1297;25387;-77
2023/03/12 13:56:33;;;;;;;4.90;3.50;;;;;;;7.10;57.47;98464.78;218915;1297;22617;-76
2023/03/12 14:01:48;;;;;;;5.20;4.60;;;;;;;7.03;58.14;98467.41;218760;1297;24554;-76
2023/03/12 14:07:14;;;;;;;8.20;5.40;;;;;;;7.08;58.79;98467.33;218482;1288;22579;-76
2023/03/12 14:12:36;;;;;;;6.50;5.00;;;;;;;7.11;58.52;98466.77;218431;1296;25437;-76
2023/03/12 14:17:44;;;;;;;7.40;5.50;;;;;;;7.10;58.06;98469.06;218474;1297;22545;-77
2023/03/12 14:23:16;;;;;;;8.30;5.60;;;;;;;6.96;57.06;98469.79;218704;1296;24253;-76
2023/03/12 14:28:22;;;;;;;9.50;5.80;;;;;;;6.75;58.27;98468.10;218147;1297;22831;-77
2023/03/12 14:33:32;;;;;;;7.20;5.20;;;;;;;6.68;58.54;98474.17;218484;1297;22786;-78
2023/03/12 14:38:47;;;;;;;8.00;5.30;;;;;;;6.63;58.38;98467.89;218609;1290;22607;-77
2023/03/12 14:43:53;;;;;;;7.10;5.20;;;;;;;6.61;58.35;98465.30;218782;1297;22930;-76
2023/03/12 14:48:56;;;;;;;8.50;5.30;;;;;;;6.59;58.34;98470.79;218631;1293;22640;-77
2023/03/12 14:54:02;;;;;;;7.60;4.10;;;;;;;6.54;58.63;98465.58;218349;1297;22566;-77
2023/03/12 14:59:33;;;;;;;6.20;4.70;;;;;;;6.51;57.45;98465.38;218434;1297;24264;-76
2023/03/12 15:04:45;;;;;;;6.10;4.60;;;;;;;6.48;58.10;98460.17;218471;1292;24333;-76
2023/03/12 15:10:03;;;;;;;5.20;3.30;;;;;;;6.44;57.80;98465.30;218305;1289;24230;-76
2023/03/12 15:15:10;;;;;;;3.30;1.80;;;;;;;6.30;56.77;98473.28;218419;1295;22633;-76
2023/03/12 15:20:15;;;;;;;3.50;1.90;;;;;;;6.07;54.97;98473.42;218628;1297;22766;-76
2023/03/12 15:25:27;;;;;;;3.60;2.30;;;;;;;5.82;54.09;98474.66;218774;1296;22628;-76
2023/03/12 15:30:44;;;;;;;4.30;2.20;;;;;;;5.58;54.20;98462.77;218429;1297;25392;-76
2023/03/12 15:36:35;;;;;;;3.50;2.30;;;;;;;5.41;54.69;98464.41;218679;1289;25318;-77
2023/03/12 15:41:50;;;;;;;4.20;3.10;;;;;;;5.20;54.79;98460.15;218381;1297;25292;-75
2023/03/12 15:47:04;;;;;;;4.10;2.90;;;;;;;5.11;55.49;98471.11;218505;1295;24315;-75
2023/03/12 15:52:40;;;;;;;5.30;4.30;;;;;;;5.08;56.40;98468.12;218648;1297;22592;-75
2023/03/12 15:57:47;;;;;;;8.10;5.30;;;;;;;5.00;56.97;98460.45;218056;1297;24265;-75
2023/03/12 16:02:59;;;;;;;8.10;5.90;;;;;;;4.92;57.34;98463.17;218280;1292;24310;-76
2023/03/12 16:08:34;;;;;;;8.20;5.60;;;;;;;4.86;58.15;98463.07;218375;1294;24315;-76
2023/03/12 16:13:37;;;;;;;9.60;7.00;;;;;;;4.75;58.67;98460.58;218537;1293;22604;-78
2023/03/12 16:18:43;;;;;;;8.80;6.60;;;;;;;4.62;58.87;98465.97;218551;1295;25397;-75
2023/03/12 16:23:51;;;;;;;10.30;7.40;;;;;;;4.48;59.16;98462.21;218535;1297;22678;-75
2023/03/12 16:28:54;;;;;;;11.30;7.10;;;;;;;4.36;59.77;98466.05;218587;1297;25399;-76
2023/03/12 16:33:59;;;;;;;12.80;7.90;;;;;;;4.24;60.08;98468.78;218582;1297;24267;-76
2023/03/12 16:39:11;;;;;;;13.70;8.80;;;;;;;4.15;60.32;98464.35;218607;1292;22578;-77
2023/03/12 16:44:21;;;;;;;11.90;7.70;;;;;;;4.09;60.62;98473.98;219092;1292;25306;-77
2023/03/12 16:49:26;;;;;;;10.30;7.40;;;;;;;4.05;60.69;98483.13;218784;1296;22907;-77
2023/03/12 16:54:29;;;;;;;16.10;11.40;;;;;;;4.01;60.74;98476.02;218788;1290;25342;-76
2023/03/12 16:59:36;;;;;;;10.60;6.80;;;;;;;3.98;61.05;98471.01;218456;1296;22565;-77
2023/03/12 17:04:39;;;;;;;9.00;6.70;;;;;;;3.94;60.92;98472.02;218703;1296;23083;-77
2023/03/12 17:09:41;;;;;;;8.90;6.00;;;;;;;3.91;60.89;98460.15;218682;1296;22535;-77
2023/03/12 17:14:47;;;;;;;10.70;6.80;;;;;;;3.86;60.94;98453.97;218853;1296;22739;-76
2023/03/12 17:19:52;;;;;;;11.60;6.60;;;;;;;3.83;60.66;98448.05;218506;1296;24252;-77
2023/03/12 17:24:54;;;;;;;11.50;7.10;;;;;;;3.79;60.63;98446.48;218725;1289;22551;-78
2023/03/12 17:29:56;;;;;;;13.60;8.00;;;;;;;3.75;60.59;98442.56;218314;1289;23800;-75
2023/03/12 17:35:02;;;;;;;13.40;7.70;;;;;;;3.70;60.67;98445.89;218549;1296;23810;-76
2023/03/12 17:40:09;;;;;;;18.50;8.80;;;;;;;3.64;60.87;98461.85;219036;1292;23952;-76
2023/03/12 17:45:22;;;;;;;16.00;10.20;;;;;;;3.59;60.98;98462.33;218552;1296;22550;-75
2023/03/12 17:50:24;;;;;;;19.70;12.80;;;;;;;3.55;61.22;98442.17;218554;1295;23039;-77
2023/03/12 17:55:39;;;;;;;26.80;17.00;;;;;;;3.50;61.51;98432.66;218672;1297;22601;-77
2023/03/12 18:00:44;;;;;;;17.20;9.60;;;;;;;3.46;61.61;98417.09;218379;1296;22545;-76
2023/03/12 18:05:50;;;;;;;19.50;11.40;;;;;;;3.40;61.36;98424.34;218614;1297;22545;-77
2023/03/12 18:10:55;;;;;;;16.20;9.50;;;;;;;3.37;61.11;98416.77;218516;1290;22502;-77
2023/03/12 18:16:00;;;;;;;17.70;9.90;;;;;;;3.34;61.36;98418.89;218616;1293;23943;-76
2023/03/12 18:21:02;;;;;;;19.20;10.80;;;;;;;3.31;61.50;98422.59;218483;1293;25275;-76
2023/03/12 18:26:05;;;;;;;20.90;11.90;;;;;;;3.30;61.54;98431.64;218599;1295;25369;-75
2023/03/12 18:31:08;;;;;;;19.70;10.70;;;;;;;3.29;61.54;98452.25;218523;1294;24373;-76
2023/03/12 18:36:13;;;;;;;20.70;10.50;;;;;;;3.28;61.68;98458.27;218712;1294;25365;-76
2023/03/12 18:41:15;;;;;;;24.60;14.20;;;;;;;3.28;61.93;98445.85;218763;1294;23962;-77
2023/03/12 18:46:18;;;;;;;21.00;12.70;;;;;;;3.30;61.91;98425.38;218668;1295;25516;-78
2023/03/12 18:51:20;;;;;;;21.20;12.30;;;;;;;3.29;62.25;98426.96;218434;1295;22916;-78
2023/03/12 18:56:24;;;;;;;20.80;11.40;;;;;;;3.28;61.88;98428.95;218815;1292;24040;-77
2023/03/12 19:01:29;;;;;;;19.00;10.40;;;;;;;3.26;61.80;98423.85;218891;1296;22593;-77
2023/03/12 19:06:33;;;;;;;18.30;10.20;;;;;;;3.24;61.55;98435.85;218478;1294;25366;-77
2023/03/12 19:11:54;;;;;;;21.10;10.50;;;;;;;3.21;61.42;98420.10;218757;1296;22536;-78
2023/03/12 19:16:56;;;;;;;22.70;10.90;;;;;;;3.18;61.32;98408.36;218721;1289;22559;-77
2023/03/12 19:22:01;;;;;;;23.10;12.10;;;;;;;3.15;61.13;98417.55;218670;1289;22551;-76
2023/03/12 19:27:06;;;;;;;18.00;10.80;;;;;;;3.13;61.41;98417.89;218626;1293;22576;-77
2023/03/12 19:32:09;;;;;;;17.30;10.30;;;;;;;3.14;61.57;98420.94;218635;1292;25398;-78
2023/03/12 19:37:11;;;;;;;18.90;11.00;;;;;;;3.16;61.25;98417.27;218547;1295;22557;-76
2023/03/12 19:42:19;;;;;;;18.50;9.90;;;;;;;3.17;61.34;98424.33;218701;1296;24292;-77
2023/03/12 19:47:21;;;;;;;17.30;9.70;;;;;;;3.17;61.15;98412.95;218718;1289;22669;-77
2023/03/12 19:52:24;;;;;;;16.50;9.40;;;;;;;3.20;61.14;98408.36;218490;1297;25382;-77
2023/03/12 19:57:26;;;;;;;16.70;8.50;;;;;;;3.22;61.13;98395.15;218607;1295;22545;-77
2023/03/12 20:02:29;;;;;;;17.00;9.60;;;;;;;3.24;60.72;98396.34;218071;1297;22676;-76
2023/03/12 20:07:32;;;;;;;17.70;10.10;;;;;;;3.25;60.94;98388.41;218796;1297;22604;-76
2023/03/12 20:12:36;;;;;;;20.10;9.80;;;;;;;3.27;60.90;98385.93;218739;1294;24281;-76
2023/03/12 20:17:38;;;;;;;18.00;9.30;;;;;;;3.28;60.76;98380.29;218661;1293;25335;-77
2023/03/12 20:22:40;;;;;;;16.70;8.80;;;;;;;3.28;60.85;98369.63;218436;1292;25302;-77
2023/03/12 20:27:46;;;;;;;20.10;8.80;;;;;;;3.30;60.69;98353.45;218572;1293;22557;-76
2023/03/12 20:32:48;;;;;;;15.40;8.10;;;;;;;3.31;60.90;98339.27;218741;1290;22676;-76
2023/03/12 20:37:50;;;;;;;16.60;9.10;;;;;;;3.32;60.90;98324.73;218706;1293;23023;-77
2023/03/12 20:42:53;;;;;;;12.90;7.30;;;;;;;3.33;61.08;98309.85;218625;1297;23776;-76
2023/03/12 20:47:58;;;;;;;15.40;6.80;;;;;;;3.34;61.02;98306.95;218580;1293;22594;-79
2023/03/12 20:53:00;;;;;;;14.30;6.30;;;;;;;3.35;60.78;98304.71;218732;1295;25387;-76
2023/03/12 20:58:03;;;;;;;16.10;7.10;;;;;;;3.37;60.88;98310.93;218742;1296;24401;-76
2023/03/12 21:03:05;;;;;;;14.40;7.00;;;;;;;3.41;60.79;98301.48;218783;1293;24266;-76
2023/03/12 21:08:08;;;;;;;15.60;7.40;;;;;;;3.43;60.82;98296.98;218580;1296;22647;-77
2023/03/12 21:13:11;;;;;;;12.30;6.00;;;;;;;3.43;60.98;98308.95;218518;1295;22677;-76
2023/03/12 21:18:13;;;;;;;12.50;5.80;;;;;;;3.45;60.86;98323.08;218828;1295;22553;-77
2023/03/12 21:23:16;;;;;;;8.60;4.50;;;;;;;3.48;60.90;98328.45;218608;1292;22618;-78
2023/03/12 21:28:18;;;;;;;9.20;4.20;;;;;;;3.53;60.73;98320.27;218905;1290;25293;-76
2023/03/12 21:33:21;;;;;;;7.30;4.20;;;;;;;3.59;60.62;98318.98;218755;1296;22554;-77
2023/03/12 21:38:24;;;;;;;7.60;4.40;;;;;;;3.65;60.52;98321.31;218848;1296;22553;-76
2023/03/12 21:43:28;;;;;;;7.70;4.20;;;;;;;3.72;60.63;98319.58;218634;1293;22684;-78
2023/03/12 21:48:30;;;;;;;7.20;4.10;;;;;;;3.79;60.48;98316.61;218675;1296;22546;-78
2023/03/12 21:53:34;;;;;;;7.80;4.10;;;;;;;3.87;60.44;98327.40;218366;1293;22545;-77
2023/03/12 21:58:36;;;;;;;8.00;3.60;;;;;;;3.96;60.58;98322.88;218689;1296;22777;-76
2023/03/12 22:03:40;;;;;;;6.80;3.40;;;;;;;4.02;60.52;98315.58;218886;1289;24266;-78
2023/03/12 22:08:45;;;;;;;6.20;3.80;;;;;;;4.10;60.26;98320.58;218545;1296;22902;-77
2023/03/12 22:13:52;;;;;;;6.70;3.60;;;;;;;4.13;60.56;98311.73;218167;1296;22583;-77
2023/03/12 22:18:55;;;;;;;7.50;4.00;;;;;;;4.14;60.93;98309.17;218576;1296;22612;-77
2023/03/12 22:24:01;;;;;;;7.90;4.30;;;;;;;4.13;61.04;98313.05;218849;1296;23812;-77
2023/03/12 22:29:05;;;;;;;7.70;4.30;;;;;;;4.14;61.52;98318.02;218798;1293;24428;-75
2023/03/12 22:34:08;;;;;;;7.00;4.10;;;;;;;4.16;61.70;98316.08;218864;1296;25456;-76
2023/03/12 22:39:11;;;;;;;7.50;4.20;;;;;;;4.19;61.97;98293.73;218575;1295;22553;-76
2023/03/12 22:44:13;;;;;;;7.10;3.80;;;;;;;4.19;62.63;98299.16;218756;1292;25443;-76
2023/03/12 22:49:31;;;;;;;7.30;4.10;;;;;;;4.18;62.88;98320.23;218843;1297;22729;-77
2023/03/12 22:54:35;;;;;;;7.70;3.60;;;;;;;4.21;63.40;98316.91;218380;1296;26577;-75
2023/03/12 22:59:41;;;;;;;8.60;4.50;;;;;;;4.26;63.80;98306.87;218399;1295;22569;-76
2023/03/12 23:04:43;;;;;;;6.80;4.30;;;;;;;4.30;64.09;98312.73;218324;1297;22748;-77
2023/03/12 23:09:46;;;;;;;5.60;3.80;;;;;;;4.33;64.29;98323.73;218430;1297;22552;-76
2023/03/12 23:14:49;;;;;;;7.70;4.90;;;;;;;4.35;64.52;98321.26;218492;1295;278679;-76
2023/03/12 23:19:51;;;;;;;8.40;4.60;;;;;;;4.37;64.79;98319.11;218508;1293;23830;-76
2023/03/12 23:25:04;;;;;;;7.10;4.20;;;;;;;4.37;64.89;98317.18;218465;1297;24281;-78
2023/03/12 23:30:08;;;;;;;8.40;4.90;;;;;;;4.38;65.37;98306.99;218575;1297;22548;-76
2023/03/12 23:35:11;;;;;;;6.70;4.60;;;;;;;4.38;65.58;98314.67;218555;1297;24333;-77
2023/03/12 23:40:18;;;;;;;7.00;4.70;;;;;;;4.38;65.94;98320.37;218301;1297;22558;-76
2023/03/12 23:45:21;;;;;;;9.50;4.60;;;;;;;4.42;66.11;98322.99;218409;1289;22543;-77
2023/03/12 23:50:24;;;;;;;8.00;5.20;;;;;;;4.44;66.74;98319.92;218363;1295;22619;-78
2023/03/12 23:55:27;;;;;;;7.10;5.40;;;;;;;4.46;67.15;98317.13;218533;1293;25283;-76
